Centerburg, Ohio
Current Conditions -  °F | °C
As of 4:36 PM on Friday 31 Oct 2014 (Local Time) from K4I3 Reporting Station
Light Rain Light Rain  
Wind Chill: 40°   Ceiling: 1700
Heat Index: 43°   Visibility: 5mi
Dew Point: 41°   Wind: 5mph
Humidity: 93%   Direction: 300°WNW
Pressure: 29.84"   Gusts: NA
Location:  40.3°N, 82.7°W
Report Text: K4I3 312036Z AUTO 30004KT 5SM -RA SCT008 BKN017 BKN024 06/05 A2984 RMK AO2
Loading
Personal Weather Stations






























Interactive Weather Map
Tropical Storm Tracking
New forecast layout! Learn more

10-Day Weather Forecast

Advertisements
Track Severe Weather on mobile